This is the latest recevied weather packets stored in our database for station/object IW2LSY-11. If no packets are shown the sender has not sent any weather packets the latest 10 day(s).
| Time | Temp. | Humidity | Pressure | Rain* | Wind** | Luminosity | Snow |
|---|---|---|---|---|---|---|---|
| 1778084411 | 12.78° C | 95% | 1011.4 hPa | - | - | 273 W/m² | - |
| 1778083812 | 12.78° C | 90% | 1011 hPa | - | - | 273 W/m² | - |
| 1778083212 | 13.33° C | 80% | 1010.8 hPa | - | - | 273 W/m² | - |
| 1778082613 | 13.33° C | 81% | 1010.5 hPa | - | - | 273 W/m² | - |
| 1778082014 | 13.89° C | 83% | 1010.3 hPa | - | - | 275 W/m² | - |
| 1778081414 | 15° C | 77% | 1010.1 hPa | - | - | 275 W/m² | - |
| 1778080815 | 15.56° C | 75% | 1010 hPa | - | - | 275 W/m² | - |
| 1778080204 | 15° C | 73% | 1009.9 hPa | - | - | 275 W/m² | - |
| 1778079605 | 15.56° C | 69% | 1009.8 hPa | - | - | 275 W/m² | - |
| 1778079006 | 15.56° C | 61% | 1009.7 hPa | - | - | 275 W/m² | - |
| 1778078407 | 15.56° C | 59% | 1009.8 hPa | - | - | 276 W/m² | - |
| 1778077807 | 16.11° C | 61% | 1009.7 hPa | - | - | 276 W/m² | - |
| 1778077208 | 15.56° C | 60% | 1009.9 hPa | - | - | 276 W/m² | - |
| 1778076608 | 15° C | 69% | 1010 hPa | - | - | 276 W/m² | - |
| 1778076008 | 15° C | 73% | 1010.4 hPa | - | - | 276 W/m² | - |
| 1778075409 | 14.44° C | 74% | 1010.4 hPa | - | - | 276 W/m² | - |
| 1778074809 | 15.56° C | 64% | 1010.1 hPa | - | - | 277 W/m² | - |
| 1778074210 | 15° C | 62% | 1009.9 hPa | - | - | 277 W/m² | - |
| 1778073610 | 15.56° C | 63% | 1009.9 hPa | - | - | 278 W/m² | - |
| 1778073011 | 15.56° C | 56% | 1009.9 hPa | - | - | 278 W/m² | - |
| 1778072412 | 15.56° C | 55% | 1010 hPa | - | - | 278 W/m² | - |
| 1778071812 | 16.11° C | 55% | 1010 hPa | - | - | 279 W/m² | - |
| 1778071212 | 15° C | 60% | 1010 hPa | - | - | 280 W/m² | - |
| 1778070612 | 15° C | 62% | 1009.9 hPa | - | - | 281 W/m² | - |
| 1778070012 | 15° C | 75% | 1010.1 hPa | - | - | 281 W/m² | - |
* Rain since midnight (hover to see other rain measurements)
** Current wind speed in m/s (hover to see current wind gust speed)